sensor_id;sensor_type;location;lat;lon;timestamp;temperature;humidity
11812;DHT22;5963;50.184;9.162;2023-02-08T00:00:26;-2.50;99.90
11812;DHT22;5963;50.184;9.162;2023-02-08T00:02:56;-2.40;99.90
11812;DHT22;5963;50.184;9.162;2023-02-08T00:05:26;-2.40;99.90
11812;DHT22;5963;50.184;9.162;2023-02-08T00:07:56;-2.30;99.90
11812;DHT22;5963;50.184;9.162;2023-02-08T00:10:26;-2.40;99.90
11812;DHT22;5963;50.184;9.162;2023-02-08T00:12:55;-2.40;99.90
11812;DHT22;5963;50.184;9.162;2023-02-08T00:15:26;-2.40;99.90
11812;DHT22;5963;50.184;9.162;2023-02-08T00:17:56;-2.40;99.90
11812;DHT22;5963;50.184;9.162;2023-02-08T00:20:26;-2.40;99.90
11812;DHT22;5963;50.184;9.162;2023-02-08T00:22:56;-2.50;99.90
11812;DHT22;5963;50.184;9.162;2023-02-08T00:25:26;-2.50;99.90
11812;DHT22;5963;50.184;9.162;2023-02-08T00:27:56;-2.60;99.90
11812;DHT22;5963;50.184;9.162;2023-02-08T00:30:27;-2.50;99.90
11812;DHT22;5963;50.184;9.162;2023-02-08T00:32:56;-2.50;99.90
11812;DHT22;5963;50.184;9.162;2023-02-08T00:35:26;-2.50;99.90
11812;DHT22;5963;50.184;9.162;2023-02-08T00:37:56;-2.50;99.90
11812;DHT22;5963;50.184;9.162;2023-02-08T00:40:26;-2.50;99.90
11812;DHT22;5963;50.184;9.162;2023-02-08T00:42:56;-2.50;99.90
11812;DHT22;5963;50.184;9.162;2023-02-08T00:45:27;-2.50;99.90
11812;DHT22;5963;50.184;9.162;2023-02-08T00:47:56;-2.50;99.90
11812;DHT22;5963;50.184;9.162;2023-02-08T00:50:26;-2.50;99.90
11812;DHT22;5963;50.184;9.162;2023-02-08T00:52:56;-2.40;99.90
11812;DHT22;5963;50.184;9.162;2023-02-08T00:55:26;-2.50;99.90
11812;DHT22;5963;50.184;9.162;2023-02-08T00:57:56;-2.40;99.90
11812;DHT22;5963;50.184;9.162;2023-02-08T01:00:27;-2.50;99.90
11812;DHT22;5963;50.184;9.162;2023-02-08T01:02:57;-2.50;99.90
11812;DHT22;5963;50.184;9.162;2023-02-08T01:05:27;-2.50;99.90
11812;DHT22;5963;50.184;9.162;2023-02-08T01:07:57;-2.50;99.90
11812;DHT22;5963;50.184;9.162;2023-02-08T01:10:26;-2.50;99.90
11812;DHT22;5963;50.184;9.162;2023-02-08T01:12:56;-2.50;99.90
11812;DHT22;5963;50.184;9.162;2023-02-08T01:15:27;-2.50;99.90
11812;DHT22;5963;50.184;9.162;2023-02-08T01:17:57;-2.50;99.90
11812;DHT22;5963;50.184;9.162;2023-02-08T01:20:27;-2.50;99.90
11812;DHT22;5963;50.184;9.162;2023-02-08T01:22:58;-2.60;99.90
11812;DHT22;5963;50.184;9.162;2023-02-08T01:25:26;-2.60;99.90
11812;DHT22;5963;50.184;9.162;2023-02-08T01:27:56;-2.60;99.90
11812;DHT22;5963;50.184;9.162;2023-02-08T01:30:27;-2.70;99.90
11812;DHT22;5963;50.184;9.162;2023-02-08T01:32:57;-2.70;99.90
11812;DHT22;5963;50.184;9.162;2023-02-08T01:35:27;-2.70;99.90
11812;DHT22;5963;50.184;9.162;2023-02-08T01:37:57;-2.60;99.90
11812;DHT22;5963;50.184;9.162;2023-02-08T01:40:27;-2.80;99.90
11812;DHT22;5963;50.184;9.162;2023-02-08T01:42:57;-2.80;99.90
11812;DHT22;5963;50.184;9.162;2023-02-08T01:45:28;-2.80;99.90
11812;DHT22;5963;50.184;9.162;2023-02-08T01:48:06;-2.80;99.90
11812;DHT22;5963;50.184;9.162;2023-02-08T01:50:42;-2.80;99.90
11812;DHT22;5963;50.184;9.162;2023-02-08T01:53:13;-2.90;99.90
11812;DHT22;5963;50.184;9.162;2023-02-08T01:55:46;-2.90;99.90
11812;DHT22;5963;50.184;9.162;2023-02-08T01:58:18;-2.90;99.90
11812;DHT22;5963;50.184;9.162;2023-02-08T02:00:50;-3.00;99.90
11812;DHT22;5963;50.184;9.162;2023-02-08T02:03:21;-3.00;99.90
11812;DHT22;5963;50.184;9.162;2023-02-08T02:05:56;-3.10;99.90
11812;DHT22;5963;50.184;9.162;2023-02-08T02:08:29;-3.20;99.90
11812;DHT22;5963;50.184;9.162;2023-02-08T02:11:03;-3.20;99.90
11812;DHT22;5963;50.184;9.162;2023-02-08T02:13:34;-3.20;99.90
11812;DHT22;5963;50.184;9.162;2023-02-08T02:16:07;-3.20;99.90
11812;DHT22;5963;50.184;9.162;2023-02-08T02:18:37;-3.20;99.90
11812;DHT22;5963;50.184;9.162;2023-02-08T02:27:25;-3.30;99.90
11812;DHT22;5963;50.184;9.162;2023-02-08T02:33:16;-3.20;99.90
11812;DHT22;5963;50.184;9.162;2023-02-08T02:35:55;-3.10;99.90
11812;DHT22;5963;50.184;9.162;2023-02-08T02:38:34;-3.20;99.90
11812;DHT22;5963;50.184;9.162;2023-02-08T02:41:10;-3.20;99.90
11812;DHT22;5963;50.184;9.162;2023-02-08T02:44:04;-3.10;99.90
11812;DHT22;5963;50.184;9.162;2023-02-08T02:46:40;-3.20;99.90
11812;DHT22;5963;50.184;9.162;2023-02-08T02:49:19;-3.20;99.90
11812;DHT22;5963;50.184;9.162;2023-02-08T02:51:57;-3.30;99.90
11812;DHT22;5963;50.184;9.162;2023-02-08T02:54:33;-3.30;99.90
11812;DHT22;5963;50.184;9.162;2023-02-08T02:57:09;-3.20;99.90
11812;DHT22;5963;50.184;9.162;2023-02-08T02:59:40;-3.30;99.90
11812;DHT22;5963;50.184;9.162;2023-02-08T03:02:11;-3.30;99.90
11812;DHT22;5963;50.184;9.162;2023-02-08T03:04:57;-3.30;99.90
11812;DHT22;5963;50.184;9.162;2023-02-08T03:07:42;-3.20;99.90
11812;DHT22;5963;50.184;9.162;2023-02-08T03:10:23;-3.20;99.90
11812;DHT22;5963;50.184;9.162;2023-02-08T03:12:57;-3.20;99.90
11812;DHT22;5963;50.184;9.162;2023-02-08T03:15:32;-3.30;99.90
11812;DHT22;5963;50.184;9.162;2023-02-08T03:18:15;-3.30;99.90
11812;DHT22;5963;50.184;9.162;2023-02-08T03:20:52;-3.30;99.90
11812;DHT22;5963;50.184;9.162;2023-02-08T03:23:29;-3.30;99.90
11812;DHT22;5963;50.184;9.162;2023-02-08T03:26:04;-3.30;99.90
11812;DHT22;5963;50.184;9.162;2023-02-08T03:28:38;-3.40;99.90
11812;DHT22;5963;50.184;9.162;2023-02-08T03:31:13;-3.40;99.90
11812;DHT22;5963;50.184;9.162;2023-02-08T03:33:50;-3.40;99.90
11812;DHT22;5963;50.184;9.162;2023-02-08T03:36:25;-3.30;99.90
11812;DHT22;5963;50.184;9.162;2023-02-08T03:39:02;-3.20;99.90
11812;DHT22;5963;50.184;9.162;2023-02-08T03:41:37;-3.20;99.90
11812;DHT22;5963;50.184;9.162;2023-02-08T03:44:12;-3.20;99.90
11812;DHT22;5963;50.184;9.162;2023-02-08T03:46:45;-3.20;99.90
11812;DHT22;5963;50.184;9.162;2023-02-08T03:49:20;-3.20;99.90
11812;DHT22;5963;50.184;9.162;2023-02-08T03:51:53;-3.10;99.90
11812;DHT22;5963;50.184;9.162;2023-02-08T03:54:27;-3.20;99.90
11812;DHT22;5963;50.184;9.162;2023-02-08T03:57:02;-3.10;99.90
11812;DHT22;5963;50.184;9.162;2023-02-08T03:59:37;-3.20;99.90
11812;DHT22;5963;50.184;9.162;2023-02-08T04:02:11;-3.20;99.90
11812;DHT22;5963;50.184;9.162;2023-02-08T04:04:45;-3.20;99.90
11812;DHT22;5963;50.184;9.162;2023-02-08T04:07:17;-3.20;99.90
11812;DHT22;5963;50.184;9.162;2023-02-08T04:12:30;-3.30;99.90
11812;DHT22;5963;50.184;9.162;2023-02-08T04:15:00;-3.30;99.90
11812;DHT22;5963;50.184;9.162;2023-02-08T04:17:30;-3.40;99.90
11812;DHT22;5963;50.184;9.162;2023-02-08T04:20:00;-3.40;99.90
11812;DHT22;5963;50.184;9.162;2023-02-08T04:22:30;-3.40;99.90
11812;DHT22;5963;50.184;9.162;2023-02-08T04:25:00;-3.40;99.90
11812;DHT22;5963;50.184;9.162;2023-02-08T04:27:32;-3.50;99.90
11812;DHT22;5963;50.184;9.162;2023-02-08T04:30:01;-3.50;99.90
11812;DHT22;5963;50.184;9.162;2023-02-08T04:32:31;-3.60;99.90
11812;DHT22;5963;50.184;9.162;2023-02-08T04:35:01;-3.60;99.90
11812;DHT22;5963;50.184;9.162;2023-02-08T04:37:31;-3.70;99.90
11812;DHT22;5963;50.184;9.162;2023-02-08T04:40:01;-3.80;99.90
11812;DHT22;5963;50.184;9.162;2023-02-08T04:42:31;-3.80;99.90
11812;DHT22;5963;50.184;9.162;2023-02-08T04:45:01;-3.80;99.90
11812;DHT22;5963;50.184;9.162;2023-02-08T04:47:31;-3.80;99.90
11812;DHT22;5963;50.184;9.162;2023-02-08T04:50:01;-3.80;99.90
11812;DHT22;5963;50.184;9.162;2023-02-08T04:52:31;-3.80;99.90
11812;DHT22;5963;50.184;9.162;2023-02-08T04:55:01;-3.80;99.90
11812;DHT22;5963;50.184;9.162;2023-02-08T04:57:30;-3.80;99.90
11812;DHT22;5963;50.184;9.162;2023-02-08T05:00:00;-3.80;99.90
11812;DHT22;5963;50.184;9.162;2023-02-08T05:02:30;-3.80;99.90
11812;DHT22;5963;50.184;9.162;2023-02-08T05:05:00;-3.80;99.90
11812;DHT22;5963;50.184;9.162;2023-02-08T05:07:30;-3.80;99.90
11812;DHT22;5963;50.184;9.162;2023-02-08T05:10:00;-3.80;99.90
11812;DHT22;5963;50.184;9.162;2023-02-08T05:12:29;-3.90;99.90
11812;DHT22;5963;50.184;9.162;2023-02-08T05:14:59;-3.80;99.90
11812;DHT22;5963;50.184;9.162;2023-02-08T05:17:29;-3.70;99.90
11812;DHT22;5963;50.184;9.162;2023-02-08T05:19:58;-3.70;99.90
11812;DHT22;5963;50.184;9.162;2023-02-08T05:24:58;-3.70;99.90
11812;DHT22;5963;50.184;9.162;2023-02-08T05:27:28;-3.70;99.90
11812;DHT22;5963;50.184;9.162;2023-02-08T05:29:59;-3.80;99.90
11812;DHT22;5963;50.184;9.162;2023-02-08T05:32:29;-3.80;99.90
11812;DHT22;5963;50.184;9.162;2023-02-08T05:34:58;-3.80;99.90
11812;DHT22;5963;50.184;9.162;2023-02-08T05:37:28;-3.80;99.90
11812;DHT22;5963;50.184;9.162;2023-02-08T05:39:58;-3.90;99.90
11812;DHT22;5963;50.184;9.162;2023-02-08T05:42:28;-3.90;99.90
11812;DHT22;5963;50.184;9.162;2023-02-08T05:44:59;-3.90;99.90
11812;DHT22;5963;50.184;9.162;2023-02-08T05:47:28;-4.00;99.90
11812;DHT22;5963;50.184;9.162;2023-02-08T05:49:58;-4.00;99.90
11812;DHT22;5963;50.184;9.162;2023-02-08T05:52:28;-4.00;99.90
11812;DHT22;5963;50.184;9.162;2023-02-08T05:54:58;-4.00;99.90
11812;DHT22;5963;50.184;9.162;2023-02-08T05:57:28;-4.00;99.90
11812;DHT22;5963;50.184;9.162;2023-02-08T06:00:01;-4.10;99.90
11812;DHT22;5963;50.184;9.162;2023-02-08T06:02:31;-4.10;99.90
11812;DHT22;5963;50.184;9.162;2023-02-08T06:05:01;-4.20;99.90
11812;DHT22;5963;50.184;9.162;2023-02-08T06:07:31;-4.10;99.90
11812;DHT22;5963;50.184;9.162;2023-02-08T06:10:01;-4.10;99.90
11812;DHT22;5963;50.184;9.162;2023-02-08T06:12:31;-4.10;99.90
11812;DHT22;5963;50.184;9.162;2023-02-08T06:15:02;-4.10;99.90
11812;DHT22;5963;50.184;9.162;2023-02-08T06:17:32;-4.20;99.90
11812;DHT22;5963;50.184;9.162;2023-02-08T06:20:01;-4.20;99.90
11812;DHT22;5963;50.184;9.162;2023-02-08T06:22:32;-4.20;99.90
11812;DHT22;5963;50.184;9.162;2023-02-08T06:25:02;-4.20;99.90
11812;DHT22;5963;50.184;9.162;2023-02-08T06:27:32;-4.20;99.90
11812;DHT22;5963;50.184;9.162;2023-02-08T06:30:03;-4.20;99.90
11812;DHT22;5963;50.184;9.162;2023-02-08T06:32:33;-4.20;99.90
11812;DHT22;5963;50.184;9.162;2023-02-08T06:35:03;-4.20;99.90
11812;DHT22;5963;50.184;9.162;2023-02-08T06:37:33;-4.20;99.90
11812;DHT22;5963;50.184;9.162;2023-02-08T06:40:03;-4.20;99.90
11812;DHT22;5963;50.184;9.162;2023-02-08T06:42:33;-4.20;99.90
11812;DHT22;5963;50.184;9.162;2023-02-08T06:45:05;-4.20;99.90
11812;DHT22;5963;50.184;9.162;2023-02-08T06:47:40;-4.30;99.90
11812;DHT22;5963;50.184;9.162;2023-02-08T06:50:10;-4.30;99.90
11812;DHT22;5963;50.184;9.162;2023-02-08T06:52:42;-4.20;99.90
11812;DHT22;5963;50.184;9.162;2023-02-08T06:55:12;-4.10;99.90
11812;DHT22;5963;50.184;9.162;2023-02-08T06:57:42;-4.00;99.90
11812;DHT22;5963;50.184;9.162;2023-02-08T07:00:15;-3.90;99.90
11812;DHT22;5963;50.184;9.162;2023-02-08T07:02:45;-3.80;99.90
11812;DHT22;5963;50.184;9.162;2023-02-08T07:05:15;-3.80;99.90
11812;DHT22;5963;50.184;9.162;2023-02-08T07:07:44;-3.80;99.90
11812;DHT22;5963;50.184;9.162;2023-02-08T07:10:15;-3.90;99.90
11812;DHT22;5963;50.184;9.162;2023-02-08T07:12:45;-3.90;99.90
11812;DHT22;5963;50.184;9.162;2023-02-08T07:15:16;-3.90;99.90
11812;DHT22;5963;50.184;9.162;2023-02-08T07:17:48;-3.90;99.90
11812;DHT22;5963;50.184;9.162;2023-02-08T07:20:19;-3.80;99.90
11812;DHT22;5963;50.184;9.162;2023-02-08T07:22:48;-3.80;99.90
11812;DHT22;5963;50.184;9.162;2023-02-08T07:25:18;-3.80;99.90
11812;DHT22;5963;50.184;9.162;2023-02-08T07:27:48;-3.70;99.90
11812;DHT22;5963;50.184;9.162;2023-02-08T07:30:19;-3.70;99.90
11812;DHT22;5963;50.184;9.162;2023-02-08T07:32:49;-3.60;99.90
11812;DHT22;5963;50.184;9.162;2023-02-08T07:35:19;-3.50;99.90
11812;DHT22;5963;50.184;9.162;2023-02-08T07:37:49;-3.50;99.90
11812;DHT22;5963;50.184;9.162;2023-02-08T07:40:19;-3.50;99.90
11812;DHT22;5963;50.184;9.162;2023-02-08T07:42:49;-3.40;99.90
11812;DHT22;5963;50.184;9.162;2023-02-08T07:45:20;-3.40;99.90
11812;DHT22;5963;50.184;9.162;2023-02-08T07:47:49;-3.20;99.90
11812;DHT22;5963;50.184;9.162;2023-02-08T07:50:19;-3.10;99.90
11812;DHT22;5963;50.184;9.162;2023-02-08T07:52:49;-3.00;99.90
11812;DHT22;5963;50.184;9.162;2023-02-08T07:55:19;-2.90;99.90
11812;DHT22;5963;50.184;9.162;2023-02-08T07:57:49;-2.80;99.90
11812;DHT22;5963;50.184;9.162;2023-02-08T08:00:21;-2.70;99.90
11812;DHT22;5963;50.184;9.162;2023-02-08T08:02:51;-2.60;99.90
11812;DHT22;5963;50.184;9.162;2023-02-08T08:05:20;-2.50;99.90
11812;DHT22;5963;50.184;9.162;2023-02-08T08:07:51;-2.40;99.90
11812;DHT22;5963;50.184;9.162;2023-02-08T08:10:21;-2.30;99.90
11812;DHT22;5963;50.184;9.162;2023-02-08T08:12:50;-2.20;99.90
11812;DHT22;5963;50.184;9.162;2023-02-08T08:15:21;-2.20;99.90
11812;DHT22;5963;50.184;9.162;2023-02-08T08:17:51;-2.00;99.90
11812;DHT22;5963;50.184;9.162;2023-02-08T08:20:21;-2.00;99.90
11812;DHT22;5963;50.184;9.162;2023-02-08T08:22:51;-1.80;99.90
11812;DHT22;5963;50.184;9.162;2023-02-08T08:25:21;-1.70;99.90
11812;DHT22;5963;50.184;9.162;2023-02-08T08:27:51;-1.60;99.90
11812;DHT22;5963;50.184;9.162;2023-02-08T08:30:23;-1.40;99.90
11812;DHT22;5963;50.184;9.162;2023-02-08T08:32:53;-1.30;99.90
11812;DHT22;5963;50.184;9.162;2023-02-08T08:35:22;-1.20;99.90
11812;DHT22;5963;50.184;9.162;2023-02-08T08:37:52;-1.00;99.90
11812;DHT22;5963;50.184;9.162;2023-02-08T08:40:22;-0.90;99.90
11812;DHT22;5963;50.184;9.162;2023-02-08T08:42:52;-0.80;99.90
11812;DHT22;5963;50.184;9.162;2023-02-08T08:45:23;-0.70;99.90
11812;DHT22;5963;50.184;9.162;2023-02-08T08:47:53;-0.60;99.90
11812;DHT22;5963;50.184;9.162;2023-02-08T08:50:23;-0.50;99.90
11812;DHT22;5963;50.184;9.162;2023-02-08T08:52:53;-0.50;99.90
11812;DHT22;5963;50.184;9.162;2023-02-08T08:55:23;-0.40;99.90
11812;DHT22;5963;50.184;9.162;2023-02-08T08:57:53;-0.40;99.90
11812;DHT22;5963;50.184;9.162;2023-02-08T09:00:24;-0.40;99.90
11812;DHT22;5963;50.184;9.162;2023-02-08T09:02:54;-0.30;99.90
11812;DHT22;5963;50.184;9.162;2023-02-08T09:05:24;-0.20;99.90
11812;DHT22;5963;50.184;9.162;2023-02-08T09:07:54;-0.10;99.90
11812;DHT22;5963;50.184;9.162;2023-02-08T09:10:23;0.10;99.90
11812;DHT22;5963;50.184;9.162;2023-02-08T09:12:53;0.20;99.90
11812;DHT22;5963;50.184;9.162;2023-02-08T09:15:25;0.40;99.90
11812;DHT22;5963;50.184;9.162;2023-02-08T09:17:55;0.50;99.90
11812;DHT22;5963;50.184;9.162;2023-02-08T09:20:24;0.70;99.90
11812;DHT22;5963;50.184;9.162;2023-02-08T09:22:54;0.80;99.90
11812;DHT22;5963;50.184;9.162;2023-02-08T09:25:25;1.10;99.90
11812;DHT22;5963;50.184;9.162;2023-02-08T09:27:55;1.30;99.90
11812;DHT22;5963;50.184;9.162;2023-02-08T09:30:26;1.30;99.90
11812;DHT22;5963;50.184;9.162;2023-02-08T09:32:56;1.40;99.90
11812;DHT22;5963;50.184;9.162;2023-02-08T09:35:26;1.40;99.90
11812;DHT22;5963;50.184;9.162;2023-02-08T09:37:56;1.50;99.90
11812;DHT22;5963;50.184;9.162;2023-02-08T09:40:40;1.50;99.90
11812;DHT22;5963;50.184;9.162;2023-02-08T09:43:13;1.70;99.90
11812;DHT22;5963;50.184;9.162;2023-02-08T09:45:53;2.00;99.90
11812;DHT22;5963;50.184;9.162;2023-02-08T09:48:30;2.10;99.90
11812;DHT22;5963;50.184;9.162;2023-02-08T09:51:05;2.40;99.90
11812;DHT22;5963;50.184;9.162;2023-02-08T09:53:43;2.50;99.90
11812;DHT22;5963;50.184;9.162;2023-02-08T09:56:18;2.60;99.90
11812;DHT22;5963;50.184;9.162;2023-02-08T09:58:51;2.80;99.90
11812;DHT22;5963;50.184;9.162;2023-02-08T10:01:25;2.60;99.90
11812;DHT22;5963;50.184;9.162;2023-02-08T10:03:58;2.50;99.90
11812;DHT22;5963;50.184;9.162;2023-02-08T10:06:31;2.80;99.90
11812;DHT22;5963;50.184;9.162;2023-02-08T10:09:04;2.90;99.90
11812;DHT22;5963;50.184;9.162;2023-02-08T10:11:42;2.80;99.90
11812;DHT22;5963;50.184;9.162;2023-02-08T10:14:25;2.70;99.90
11812;DHT22;5963;50.184;9.162;2023-02-08T10:17:08;2.90;99.90
11812;DHT22;5963;50.184;9.162;2023-02-08T10:19:51;3.10;99.90
11812;DHT22;5963;50.184;9.162;2023-02-08T10:22:27;3.30;99.90
11812;DHT22;5963;50.184;9.162;2023-02-08T10:25:18;3.50;99.90
11812;DHT22;5963;50.184;9.162;2023-02-08T10:28:04;3.40;99.90
11812;DHT22;5963;50.184;9.162;2023-02-08T10:30:42;4.70;99.90
11812;DHT22;5963;50.184;9.162;2023-02-08T10:33:24;3.80;99.90
11812;DHT22;5963;50.184;9.162;2023-02-08T10:35:55;4.00;99.90
11812;DHT22;5963;50.184;9.162;2023-02-08T10:38:29;4.00;99.90
11812;DHT22;5963;50.184;9.162;2023-02-08T10:41:17;4.20;99.90
11812;DHT22;5963;50.184;9.162;2023-02-08T10:43:53;4.20;99.90
11812;DHT22;5963;50.184;9.162;2023-02-08T10:46:33;4.10;99.90
11812;DHT22;5963;50.184;9.162;2023-02-08T10:49:12;4.00;99.90
11812;DHT22;5963;50.184;9.162;2023-02-08T10:51:44;4.20;99.90
11812;DHT22;5963;50.184;9.162;2023-02-08T10:54:15;4.30;99.90
11812;DHT22;5963;50.184;9.162;2023-02-08T10:56:49;4.20;99.90
11812;DHT22;5963;50.184;9.162;2023-02-08T10:59:23;4.50;99.90
11812;DHT22;5963;50.184;9.162;2023-02-08T11:01:54;4.40;99.90
11812;DHT22;5963;50.184;9.162;2023-02-08T11:04:29;4.50;99.90
11812;DHT22;5963;50.184;9.162;2023-02-08T11:07:03;4.60;99.90
11812;DHT22;5963;50.184;9.162;2023-02-08T11:09:49;4.70;99.90
11812;DHT22;5963;50.184;9.162;2023-02-08T11:12:21;4.90;99.90
11812;DHT22;5963;50.184;9.162;2023-02-08T11:14:52;4.70;99.90
11812;DHT22;5963;50.184;9.162;2023-02-08T11:17:24;4.80;99.90
11812;DHT22;5963;50.184;9.162;2023-02-08T11:20:00;5.00;99.90
11812;DHT22;5963;50.184;9.162;2023-02-08T11:22:32;4.90;99.90
11812;DHT22;5963;50.184;9.162;2023-02-08T11:25:03;5.00;99.90
11812;DHT22;5963;50.184;9.162;2023-02-08T11:27:35;4.50;99.90
11812;DHT22;5963;50.184;9.162;2023-02-08T11:30:18;4.60;99.90
11812;DHT22;5963;50.184;9.162;2023-02-08T11:36:05;4.60;98.10
11812;DHT22;5963;50.184;9.162;2023-02-08T11:38:40;4.70;97.20
11812;DHT22;5963;50.184;9.162;2023-02-08T11:41:17;4.80;97.20
11812;DHT22;5963;50.184;9.162;2023-02-08T11:43:58;4.80;96.00
11812;DHT22;5963;50.184;9.162;2023-02-08T11:46:29;4.70;95.60
11812;DHT22;5963;50.184;9.162;2023-02-08T11:49:02;4.50;94.80
11812;DHT22;5963;50.184;9.162;2023-02-08T11:51:39;4.70;94.50
11812;DHT22;5963;50.184;9.162;2023-02-08T11:54:32;4.70;94.20
11812;DHT22;5963;50.184;9.162;2023-02-08T11:57:11;4.60;93.70
11812;DHT22;5963;50.184;9.162;2023-02-08T11:59:42;4.50;93.60
11812;DHT22;5963;50.184;9.162;2023-02-08T12:02:33;4.60;93.80
11812;DHT22;5963;50.184;9.162;2023-02-08T12:05:08;4.80;94.70
11812;DHT22;5963;50.184;9.162;2023-02-08T12:07:48;4.90;93.60
11812;DHT22;5963;50.184;9.162;2023-02-08T12:16:45;4.70;93.60
11812;DHT22;5963;50.184;9.162;2023-02-08T12:19:36;5.00;94.10
11812;DHT22;5963;50.184;9.162;2023-02-08T12:22:09;5.00;94.20
11812;DHT22;5963;50.184;9.162;2023-02-08T12:24:47;5.10;94.90
11812;DHT22;5963;50.184;9.162;2023-02-08T12:27:28;5.30;95.10
11812;DHT22;5963;50.184;9.162;2023-02-08T12:30:05;5.30;95.00
11812;DHT22;5963;50.184;9.162;2023-02-08T12:33:02;5.20;94.20
11812;DHT22;5963;50.184;9.162;2023-02-08T12:35:48;5.30;95.00
11812;DHT22;5963;50.184;9.162;2023-02-08T12:42:03;5.10;95.10
11812;DHT22;5963;50.184;9.162;2023-02-08T12:44:45;4.90;95.50
11812;DHT22;5963;50.184;9.162;2023-02-08T12:47:34;5.00;96.10
11812;DHT22;5963;50.184;9.162;2023-02-08T12:50:12;5.10;96.30
11812;DHT22;5963;50.184;9.162;2023-02-08T12:52:53;5.10;96.30
11812;DHT22;5963;50.184;9.162;2023-02-08T12:55:27;5.10;96.50
11812;DHT22;5963;50.184;9.162;2023-02-08T12:58:13;4.90;95.90
11812;DHT22;5963;50.184;9.162;2023-02-08T13:00:48;4.90;96.90
11812;DHT22;5963;50.184;9.162;2023-02-08T13:03:26;5.10;97.30
11812;DHT22;5963;50.184;9.162;2023-02-08T13:05:59;4.90;96.80
11812;DHT22;5963;50.184;9.162;2023-02-08T13:08:35;5.00;97.20
11812;DHT22;5963;50.184;9.162;2023-02-08T13:11:10;5.10;97.40
11812;DHT22;5963;50.184;9.162;2023-02-08T13:13:54;5.00;97.50
11812;DHT22;5963;50.184;9.162;2023-02-08T13:16:27;5.20;97.20
11812;DHT22;5963;50.184;9.162;2023-02-08T13:19:11;5.20;97.40
11812;DHT22;5963;50.184;9.162;2023-02-08T13:21:48;5.00;97.70
11812;DHT22;5963;50.184;9.162;2023-02-08T13:24:28;4.90;97.70
11812;DHT22;5963;50.184;9.162;2023-02-08T13:27:00;4.90;97.90
11812;DHT22;5963;50.184;9.162;2023-02-08T13:29:32;4.90;97.90
11812;DHT22;5963;50.184;9.162;2023-02-08T13:32:05;4.90;98.20
11812;DHT22;5963;50.184;9.162;2023-02-08T13:34:39;4.80;97.70
11812;DHT22;5963;50.184;9.162;2023-02-08T13:37:21;4.80;97.80
11812;DHT22;5963;50.184;9.162;2023-02-08T13:39:59;4.70;98.10
11812;DHT22;5963;50.184;9.162;2023-02-08T13:42:38;4.60;98.30
11812;DHT22;5963;50.184;9.162;2023-02-08T13:45:24;4.70;98.70
11812;DHT22;5963;50.184;9.162;2023-02-08T13:48:00;4.60;98.60
11812;DHT22;5963;50.184;9.162;2023-02-08T13:50:44;4.50;98.80
11812;DHT22;5963;50.184;9.162;2023-02-08T13:53:16;4.50;98.40
11812;DHT22;5963;50.184;9.162;2023-02-08T13:56:03;4.60;98.90
11812;DHT22;5963;50.184;9.162;2023-02-08T13:58:56;4.70;99.70
11812;DHT22;5963;50.184;9.162;2023-02-08T14:01:32;4.70;99.70
11812;DHT22;5963;50.184;9.162;2023-02-08T14:04:33;4.80;99.90
11812;DHT22;5963;50.184;9.162;2023-02-08T14:07:13;4.60;99.50
11812;DHT22;5963;50.184;9.162;2023-02-08T14:10:03;4.60;99.30
11812;DHT22;5963;50.184;9.162;2023-02-08T14:12:38;4.50;99.10
11812;DHT22;5963;50.184;9.162;2023-02-08T14:15:24;4.60;98.70
11812;DHT22;5963;50.184;9.162;2023-02-08T14:17:56;4.40;98.60
11812;DHT22;5963;50.184;9.162;2023-02-08T14:20:33;4.40;98.80
11812;DHT22;5963;50.184;9.162;2023-02-08T14:23:05;4.40;98.70
11812;DHT22;5963;50.184;9.162;2023-02-08T14:25:40;4.40;98.90
11812;DHT22;5963;50.184;9.162;2023-02-08T14:28:24;4.50;99.20
11812;DHT22;5963;50.184;9.162;2023-02-08T14:30:57;4.40;99.40
11812;DHT22;5963;50.184;9.162;2023-02-08T14:33:33;4.50;99.40
11812;DHT22;5963;50.184;9.162;2023-02-08T14:36:27;4.50;99.70
11812;DHT22;5963;50.184;9.162;2023-02-08T14:39:06;4.50;99.90
11812;DHT22;5963;50.184;9.162;2023-02-08T14:41:46;4.40;99.80
11812;DHT22;5963;50.184;9.162;2023-02-08T14:53:39;4.30;99.90
11812;DHT22;5963;50.184;9.162;2023-02-08T14:56:15;4.20;99.90
11812;DHT22;5963;50.184;9.162;2023-02-08T14:58:48;4.10;99.90
11812;DHT22;5963;50.184;9.162;2023-02-08T15:01:20;4.00;99.90
11812;DHT22;5963;50.184;9.162;2023-02-08T15:03:55;4.00;99.90
11812;DHT22;5963;50.184;9.162;2023-02-08T15:06:59;3.90;99.90
11812;DHT22;5963;50.184;9.162;2023-02-08T15:09:34;3.80;99.90
11812;DHT22;5963;50.184;9.162;2023-02-08T15:12:07;3.80;99.90
11812;DHT22;5963;50.184;9.162;2023-02-08T15:14:41;3.90;99.90
11812;DHT22;5963;50.184;9.162;2023-02-08T15:17:24;3.70;99.90
11812;DHT22;5963;50.184;9.162;2023-02-08T15:20:04;3.70;99.90
11812;DHT22;5963;50.184;9.162;2023-02-08T15:22:37;3.80;99.90
11812;DHT22;5963;50.184;9.162;2023-02-08T15:25:21;3.80;99.90
11812;DHT22;5963;50.184;9.162;2023-02-08T15:27:54;3.60;99.90
11812;DHT22;5963;50.184;9.162;2023-02-08T15:30:32;3.50;99.90
11812;DHT22;5963;50.184;9.162;2023-02-08T15:33:08;3.40;99.90
11812;DHT22;5963;50.184;9.162;2023-02-08T15:35:38;3.40;99.90
11812;DHT22;5963;50.184;9.162;2023-02-08T15:38:16;3.30;99.90
11812;DHT22;5963;50.184;9.162;2023-02-08T15:41:01;3.20;99.90
11812;DHT22;5963;50.184;9.162;2023-02-08T15:43:32;3.20;99.90
11812;DHT22;5963;50.184;9.162;2023-02-08T15:46:04;3.10;99.90
11812;DHT22;5963;50.184;9.162;2023-02-08T15:48:36;3.00;99.90
11812;DHT22;5963;50.184;9.162;2023-02-08T15:51:07;2.90;99.90
11812;DHT22;5963;50.184;9.162;2023-02-08T15:53:43;3.10;99.90
11812;DHT22;5963;50.184;9.162;2023-02-08T15:56:18;2.90;99.90
11812;DHT22;5963;50.184;9.162;2023-02-08T15:59:06;2.90;99.90
11812;DHT22;5963;50.184;9.162;2023-02-08T16:01:44;2.80;99.90
11812;DHT22;5963;50.184;9.162;2023-02-08T16:04:16;2.70;99.90
11812;DHT22;5963;50.184;9.162;2023-02-08T16:06:49;2.50;99.90
11812;DHT22;5963;50.184;9.162;2023-02-08T16:09:26;2.50;99.90
11812;DHT22;5963;50.184;9.162;2023-02-08T16:11:59;2.40;99.90
11812;DHT22;5963;50.184;9.162;2023-02-08T16:14:29;2.40;99.90
11812;DHT22;5963;50.184;9.162;2023-02-08T16:17:34;2.30;99.90
11812;DHT22;5963;50.184;9.162;2023-02-08T16:20:22;2.30;99.90
11812;DHT22;5963;50.184;9.162;2023-02-08T16:23:02;2.30;99.90
11812;DHT22;5963;50.184;9.162;2023-02-08T16:25:43;2.20;99.90
11812;DHT22;5963;50.184;9.162;2023-02-08T16:28:26;2.10;99.90
11812;DHT22;5963;50.184;9.162;2023-02-08T16:30:58;2.10;99.90
11812;DHT22;5963;50.184;9.162;2023-02-08T16:33:28;2.00;99.90
11812;DHT22;5963;50.184;9.162;2023-02-08T16:36:00;2.00;99.90
11812;DHT22;5963;50.184;9.162;2023-02-08T16:38:32;2.00;99.90
11812;DHT22;5963;50.184;9.162;2023-02-08T16:41:04;2.00;99.90
11812;DHT22;5963;50.184;9.162;2023-02-08T16:43:42;1.90;99.90
11812;DHT22;5963;50.184;9.162;2023-02-08T16:46:21;1.90;99.90
11812;DHT22;5963;50.184;9.162;2023-02-08T16:48:55;1.80;99.90
11812;DHT22;5963;50.184;9.162;2023-02-08T16:51:27;1.70;99.90
11812;DHT22;5963;50.184;9.162;2023-02-08T16:54:02;1.70;99.90
11812;DHT22;5963;50.184;9.162;2023-02-08T16:56:37;1.60;99.90
11812;DHT22;5963;50.184;9.162;2023-02-08T16:59:09;1.70;99.90
11812;DHT22;5963;50.184;9.162;2023-02-08T17:01:39;1.60;99.90
11812;DHT22;5963;50.184;9.162;2023-02-08T17:04:11;1.60;99.90
11812;DHT22;5963;50.184;9.162;2023-02-08T17:06:42;1.60;99.90
11812;DHT22;5963;50.184;9.162;2023-02-08T17:09:14;1.40;99.90
11812;DHT22;5963;50.184;9.162;2023-02-08T17:11:45;1.30;99.90